This is the latest recevied weather packets stored in our database for station/object LETO. If no packets are shown the sender has not sent any weather packets the latest 1 day(s).
| Time | Temp. | Humidity | Pressure | Rain* | Wind** | Luminosity | Snow |
|---|---|---|---|---|---|---|---|
| 1778107422 | 10° C | 71% | 1010 hPa | - | - | - | - |
| 1778103822 | 10.56° C | 57% | 1010 hPa | - | - | - | - |
| 1778099024 | 13.89° C | 47% | 1010 hPa | - | - | - | - |
| 1778097225 | 13.89° C | 50% | 1010 hPa | - | - | - | - |
| 1778096623 | 13.89° C | 50% | 1010 hPa | - | - | - | - |
| 1778094822 | 17.78° C | 31% | 1010 hPa | - | - | - | - |
| 1778093624 | 20° C | 20% | 1010 hPa | - | - | - | - |
| 1778088225 | 20.56° C | 22% | 1010 hPa | - | - | - | - |
| 1778087626 | 20.56° C | 22% | 1010 hPa | - | - | - | - |
| 1778085226 | 20° C | 24% | 1010 hPa | - | - | - | - |
| 1778084625 | 20° C | 24% | 1010 hPa | - | - | - | - |
| 1778080424 | 17.78° C | - | 1011 hPa | - | - | - | - |
| 1778079825 | 17.78° C | - | 1011 hPa | - | - | - | - |
| 1778078624 | 17.78° C | - | 1011 hPa | - | - | - | - |
| 1778076821 | 20.56° C | 26% | 1012 hPa | - | - | - | - |
| 1778075622 | 18.89° C | - | 1012 hPa | - | - | - | - |
| 1778074418 | 18.89° C | 32% | 1012 hPa | - | - | - | - |
| 1778072624 | 17.78° C | 31% | 1012 hPa | - | - | - | - |
| 1778072020 | 17.78° C | 31% | 1012 hPa | - | - | - | - |
| 1778071423 | 17.78° C | 31% | 1012 hPa | - | - | - | - |
| 1778069622 | 17.78° C | 31% | 1013 hPa | - | - | - | - |
| 1778067220 | 16.67° C | 36% | 1013 hPa | - | - | - | - |
| 1778066024 | 16.67° C | 36% | 1013 hPa | - | - | - | - |
| 1778064224 | 15° C | 38% | 1013 hPa | - | - | - | - |
| 1778063024 | 15° C | 41% | 1014 hPa | - | - | - | - |
* Rain since midnight (hover to see other rain measurements)
** Current wind speed in m/s (hover to see current wind gust speed)